Helsinki, Finland

8:11 AM EET on March 25, 2017 (GMT +0200)
Vantaa | | Change Station

Elev 184 ft 60.32 °N, 24.97 °E | Updated 21 minutes ago

Light Snow
Light Snow
32 °F
Feels Like 26 °F
N
7
Wind Variable Wind from SW

Today
High -- | Low -- °F
--% Chance of Precip.
Yesterday
High -- | Low -- °F
Precip. -- in
Pressure 29.89 in
Visibility 1.6 miles
Clouds Mostly Cloudy 500 ft
Mostly Cloudy 3700 ft
Windchill 26 °F
Dew Point 32 °F
Humidity 100%
Rainfall 0.00 in
Snow Depth Not available.
6:06 AM 6:47 PM
Waning Crescent, 10% visible
METAR EFHK 250550Z 23006KT 2500 -SN BKN005 BKN037 00/M00 Q1012 NOSIG
Pressure 29.89 in
Visibility 1.6 miles
Clouds Mostly Cloudy 500 ft
Mostly Cloudy 3700 ft
Windchill 26 °F
Dew Point 32 °F
Humidity 100%
Rainfall 0.00 in
Snow Depth Not available.
6:06 AM 6:47 PM
Waning Crescent, 10% visible
METAR EFHK 250550Z 23006KT 2500 -SN BKN005 BKN037 00/M00 Q1012 NOSIG

Get Severe Weather Alerts

Thanks for signing up!

Be on the lookout for a verification email in your inbox.

You'll start receiving the daily forecast at 8 AM.

×

10-Day Weather Forecast

×

Almanac

Astronomy

Mar. 25, 2017 Rise Set
Actual Time
Civil Twilight
Nautical Twilight
Astronomical Twilight
Moon
Length of Visible Light
Length of Day
Tomorrow will be .
, % of the Moon is Illuminated

Today's Extremes

Country Highs Country Lows

Community

WunderPhotos

Upload Photos

1,962,540 photos uploaded!

WunderBlog® & News

Nearby

Air Quality

  Air Quality AQ Index Pollutant
Not available.

Snow Depth

Station Depth Elevation

Earthquake Activity

City Distance Mag. Time & Date
Minimum magnitude displayed is 2.5.

Earthquake Activity

City Distance Mag. Time & Date
Minimum magnitude displayed is 2.5.

Coastal Water Temperatures

Place Temperature

Stations

Nearby Weather Stations

Station Location Temp. Windchill Dew Point Humidity Wind Precip. Elev Updated Type